Terminal Aerodrome Forecast
Issued by NWS Amarillo, TX

Home | Current Version | Previous Version | Text Only | Print | Product List | Glossary On
Versions: 1 2 3 4 5 6 7 8 9 10 11 12 13 14 15 16 17 18 19 20 21 22 23 24 25 26 27 28 29 30 31
000
FTUS44 KAMA 202339
TAFDHT
TAF
KDHT 202339Z 2100/2124 21014KT P6SM FEW150
     FM211000 24007KT P6SM SKC
     FM211200 27007KT P6SM SKC
     FM211600 25021G32KT P6SM SKC
     FM212000 22024G36KT P6SM SKC=

USA.gov is the U.S. government's official web portal to all federal, state and local government web resources and services.